createdAt,value
2022-09-28T00:04:07.346Z,76.40
2022-09-28T00:09:10.870Z,76.30
2022-09-28T00:14:16.024Z,76.70
2022-09-28T00:19:22.720Z,76.60
2022-09-28T00:24:28.188Z,76.70
2022-09-28T00:29:36.993Z,76.70
2022-09-28T00:34:46.018Z,77.00
2022-09-28T00:39:50.516Z,76.70
2022-09-28T00:44:55.824Z,76.60
2022-09-28T00:50:25.393Z,76.40
2022-09-28T00:55:51.342Z,76.00
2022-09-28T01:00:57.434Z,76.60
2022-09-28T01:06:04.300Z,76.10
2022-09-28T01:11:07.819Z,76.00
2022-09-28T01:16:39.447Z,76.10
2022-09-28T01:22:19.741Z,75.70
2022-09-28T01:27:30.064Z,75.60
2022-09-28T01:32:55.540Z,75.30
2022-09-28T01:38:02.029Z,75.30
2022-09-28T01:43:29.601Z,75.20
2022-09-28T01:48:40.283Z,75.20
2022-09-28T01:53:50.489Z,74.90
2022-09-28T01:59:03.543Z,74.90
2022-09-28T02:04:33.652Z,74.80
2022-09-28T02:09:44.227Z,74.80
2022-09-28T02:14:50.800Z,74.60
2022-09-28T02:19:57.091Z,74.60
2022-09-28T02:25:30.578Z,74.60
2022-09-28T02:30:37.551Z,74.80
2022-09-28T02:35:43.084Z,74.60
2022-09-28T02:40:58.074Z,74.10
2022-09-28T02:46:31.837Z,74.20
2022-09-28T02:52:08.105Z,74.60
2022-09-28T02:57:32.096Z,74.50
2022-09-28T03:02:43.802Z,74.10
2022-09-28T03:08:03.595Z,74.80
2022-09-28T03:13:08.900Z,74.30
2022-09-28T03:18:13.305Z,74.60
2022-09-28T03:23:24.864Z,74.30
2022-09-28T03:28:30.057Z,74.20
2022-09-28T03:33:34.602Z,74.20
2022-09-28T03:38:38.944Z,74.30
2022-09-28T03:43:43.700Z,74.30
2022-09-28T03:48:48.970Z,74.40
2022-09-28T03:53:52.783Z,74.10
2022-09-28T03:58:56.197Z,74.60
2022-09-28T04:03:59.725Z,73.00
2022-09-28T04:09:03.446Z,72.00
2022-09-28T04:14:06.967Z,71.80
2022-09-28T04:19:10.798Z,71.30
2022-09-28T04:24:33.965Z,71.00
2022-09-28T04:29:39.221Z,70.80
2022-09-28T04:34:44.376Z,70.70
2022-09-28T04:39:48.776Z,71.10
2022-09-28T04:44:57.459Z,71.30
2022-09-28T04:50:01.182Z,71.70
2022-09-28T04:55:12.324Z,72.10
2022-09-28T05:00:17.236Z,71.70
2022-09-28T05:05:33.442Z,71.50
2022-09-28T05:11:02.577Z,71.90
2022-09-28T05:16:06.492Z,71.70
2022-09-28T05:21:16.706Z,71.30
2022-09-28T05:26:22.522Z,72.00
2022-09-28T05:31:32.676Z,71.30
2022-09-28T05:36:48.803Z,71.40
2022-09-28T05:41:53.661Z,71.40
2022-09-28T05:46:58.097Z,71.30
2022-09-28T05:52:02.029Z,71.50
2022-09-28T05:57:09.458Z,71.20
2022-09-28T06:02:13.587Z,71.40
2022-09-28T06:07:20.987Z,71.20
2022-09-28T06:12:29.968Z,71.10
2022-09-28T06:17:58.838Z,71.40
2022-09-28T06:23:30.220Z,71.00
2022-09-28T06:28:53.469Z,71.10
2022-09-28T06:34:02.195Z,70.90
2022-09-28T06:39:07.760Z,70.80
2022-09-28T06:44:12.613Z,70.70
2022-09-28T06:49:55.739Z,70.70
2022-09-28T06:55:34.764Z,70.70
2022-09-28T07:00:41.150Z,71.00
2022-09-28T07:05:48.527Z,70.70
2022-09-28T07:11:15.522Z,70.60
2022-09-28T07:16:32.759Z,70.90
2022-09-28T07:21:47.219Z,71.40
2022-09-28T07:26:51.976Z,71.70
2022-09-28T07:32:05.930Z,71.50
2022-09-28T07:37:32.885Z,71.50
2022-09-28T07:42:39.266Z,71.70
2022-09-28T07:47:43.713Z,71.80
2022-09-28T07:53:05.959Z,71.90
2022-09-28T07:58:33.670Z,72.30
2022-09-28T08:04:00.604Z,71.90
2022-09-28T08:09:07.378Z,72.10
2022-09-28T08:14:36.439Z,71.70
2022-09-28T08:20:19.403Z,72.40
2022-09-28T08:25:24.769Z,72.00
2022-09-28T08:30:29.620Z,72.10
2022-09-28T08:35:59.137Z,72.10
2022-09-28T08:42:01.286Z,71.50
2022-09-28T08:48:00.375Z,72.40
2022-09-28T08:53:22.624Z,71.90
2022-09-28T08:58:41.927Z,71.80
2022-09-28T09:03:48.699Z,72.10
2022-09-28T09:09:14.834Z,72.00
2022-09-28T09:14:31.767Z,72.10
2022-09-28T09:19:52.795Z,71.90
2022-09-28T09:25:42.763Z,71.90
2022-09-28T09:31:04.044Z,71.80
2022-09-28T09:36:30.791Z,71.80
2022-09-28T09:42:21.126Z,71.60
2022-09-28T09:47:54.759Z,71.50
2022-09-28T09:53:07.630Z,71.40
2022-09-28T09:58:19.187Z,71.30
2022-09-28T10:03:32.915Z,71.30
2022-09-28T10:08:50.458Z,70.90
2022-09-28T10:13:56.136Z,70.90
2022-09-28T10:19:22.013Z,71.00
2022-09-28T10:24:50.078Z,71.10
2022-09-28T10:30:02.371Z,71.10
2022-09-28T10:35:32.246Z,70.90
2022-09-28T10:40:50.342Z,70.50
2022-09-28T10:46:12.065Z,70.90
2022-09-28T10:51:17.545Z,70.50
2022-09-28T10:56:23.726Z,70.40
2022-09-28T11:01:34.066Z,70.40
2022-09-28T11:06:42.641Z,70.00
2022-09-28T11:11:47.905Z,70.50
2022-09-28T11:17:15.780Z,70.10
2022-09-28T11:22:34.649Z,70.50
2022-09-28T11:27:43.081Z,70.20
2022-09-28T11:32:47.625Z,70.40
2022-09-28T11:38:08.149Z,70.00
2022-09-28T11:44:07.525Z,70.20
2022-09-28T11:49:24.372Z,69.80
2022-09-28T11:54:43.324Z,69.80
2022-09-28T11:59:57.670Z,70.00
2022-09-28T12:05:24.544Z,70.10
2022-09-28T12:10:45.276Z,70.90
2022-09-28T12:16:22.983Z,71.00
2022-09-28T12:21:19.214Z,71.40
2022-09-28T12:26:37.240Z,72.70
2022-09-28T12:31:56.241Z,71.70
2022-09-28T12:37:35.707Z,72.00
2022-09-28T12:43:03.658Z,72.20
2022-09-28T12:49:03.014Z,72.40
2022-09-28T12:54:19.075Z,73.40
2022-09-28T12:59:38.352Z,75.20
2022-09-28T13:04:44.824Z,76.40
2022-09-28T13:10:01.675Z,75.90
2022-09-28T13:15:23.862Z,75.50
2022-09-28T13:20:27.317Z,76.20
2022-09-28T13:25:35.003Z,76.10
2022-09-28T13:30:40.454Z,75.40
2022-09-28T13:35:44.632Z,75.10
2022-09-28T13:41:06.412Z,74.50
2022-09-28T13:46:37.612Z,74.60
2022-09-28T13:51:47.522Z,74.40
2022-09-28T13:57:11.272Z,74.00
2022-09-28T14:02:27.227Z,73.70
2022-09-28T14:07:37.529Z,73.50
2022-09-28T14:12:53.461Z,73.30
2022-09-28T14:18:09.328Z,73.50
2022-09-28T14:23:54.215Z,73.40
2022-09-28T14:29:22.229Z,72.80
2022-09-28T14:35:19.562Z,72.80
2022-09-28T14:40:51.682Z,72.50
2022-09-28T14:46:20.199Z,72.40
2022-09-28T14:51:27.045Z,72.40
2022-09-28T14:56:56.622Z,72.30
2022-09-28T15:02:19.377Z,72.00
2022-09-28T15:07:29.946Z,72.00
2022-09-28T15:12:36.453Z,72.00
2022-09-28T15:17:43.832Z,71.60
2022-09-28T15:22:55.275Z,72.20
2022-09-28T15:28:19.695Z,71.60
2022-09-28T15:33:47.957Z,72.20
2022-09-28T15:39:12.752Z,71.60
2022-09-28T15:44:17.191Z,72.00
2022-09-28T15:49:50.965Z,71.80
2022-09-28T15:54:57.803Z,71.80
2022-09-28T16:00:07.487Z,71.50
2022-09-28T16:06:02.777Z,71.80
2022-09-28T16:11:33.214Z,71.90
2022-09-28T16:16:52.578Z,72.10
2022-09-28T16:22:02.751Z,72.60
2022-09-28T16:27:45.002Z,72.80
2022-09-28T16:33:06.165Z,73.00
2022-09-28T16:38:15.430Z,72.70
2022-09-28T16:43:37.999Z,73.60
2022-09-28T16:48:49.294Z,72.60
2022-09-28T16:54:12.353Z,72.40
2022-09-28T16:59:16.665Z,71.90
2022-09-28T17:04:20.416Z,71.90
2022-09-28T17:09:24.256Z,71.60
2022-09-28T17:14:28.904Z,71.30
2022-09-28T17:19:36.213Z,71.40
2022-09-28T17:24:40.435Z,71.20
2022-09-28T17:29:44.381Z,71.20
2022-09-28T17:35:00.811Z,71.10
2022-09-28T17:40:29.112Z,71.10
2022-09-28T17:45:40.260Z,71.10
2022-09-28T17:50:46.755Z,71.00
2022-09-28T17:55:51.880Z,71.00
2022-09-28T18:00:55.941Z,71.00
2022-09-28T18:06:07.309Z,71.20
2022-09-28T18:11:14.562Z,71.50
2022-09-28T18:16:24.392Z,70.80
2022-09-28T18:21:34.817Z,70.40
2022-09-28T18:26:38.719Z,70.60
2022-09-28T18:31:52.848Z,70.90
2022-09-28T18:37:01.672Z,70.60
2022-09-28T18:42:09.863Z,70.80
2022-09-28T18:47:31.644Z,70.80
2022-09-28T18:52:44.411Z,70.90
2022-09-28T18:57:52.182Z,70.70
2022-09-28T19:03:11.410Z,70.60
2022-09-28T19:08:47.657Z,70.80
2022-09-28T19:14:18.813Z,70.50
2022-09-28T19:19:29.346Z,70.00
2022-09-28T19:24:38.601Z,70.10
2022-09-28T19:29:45.165Z,69.80
2022-09-28T19:34:57.896Z,70.40
2022-09-28T19:40:06.222Z,69.50
2022-09-28T19:45:11.210Z,69.90
2022-09-28T19:50:15.207Z,69.80
2022-09-28T19:55:24.404Z,69.80
2022-09-28T20:00:29.556Z,69.90
2022-09-28T20:05:33.147Z,70.00
2022-09-28T20:10:39.214Z,70.00
2022-09-28T20:21:06.574Z,70.10
2022-09-28T20:26:16.302Z,70.10
2022-09-28T20:31:25.693Z,70.20
2022-09-28T20:36:35.180Z,70.20
2022-09-28T20:41:42.414Z,70.10
2022-09-28T20:46:57.838Z,70.30
2022-09-28T20:52:07.841Z,70.10
2022-09-28T20:57:19.632Z,74.60
2022-09-28T21:02:25.794Z,75.00
2022-09-28T21:07:32.440Z,74.20
2022-09-28T21:12:37.292Z,75.10
2022-09-28T21:17:41.017Z,75.00
2022-09-28T21:22:44.557Z,74.90
2022-09-28T21:27:48.908Z,75.00
2022-09-28T21:32:53.733Z,75.10
2022-09-28T21:37:57.559Z,75.60
2022-09-28T21:43:01.280Z,75.90
2022-09-28T21:48:05.218Z,75.70
2022-09-28T21:53:08.742Z,75.20
2022-09-28T21:58:15.014Z,75.30
2022-09-28T22:03:23.081Z,75.20
2022-09-28T22:08:27.634Z,75.00
2022-09-28T22:13:35.643Z,74.90
2022-09-28T22:18:45.598Z,75.00
2022-09-28T22:24:01.489Z,75.10
2022-09-28T22:29:09.364Z,75.10
2022-09-28T22:34:25.522Z,75.10
2022-09-28T22:39:35.419Z,75.10
2022-09-28T22:44:40.945Z,74.60
2022-09-28T22:49:44.363Z,74.60
2022-09-28T22:54:50.233Z,74.50
2022-09-28T22:59:53.758Z,73.60
2022-09-28T23:04:57.274Z,74.60
2022-09-28T23:10:01.413Z,73.90
2022-09-28T23:15:06.468Z,73.80
2022-09-28T23:20:12.953Z,73.80
2022-09-28T23:25:18.525Z,73.70
2022-09-28T23:30:22.249Z,73.60
2022-09-28T23:35:25.769Z,73.50
2022-09-28T23:40:29.280Z,73.80
2022-09-28T23:45:33.119Z,73.40
2022-09-28T23:50:36.639Z,73.30
2022-09-28T23:55:42.691Z,73.20
